createdAt,value
2022-10-05T00:00:41.267Z,95932.67
2022-10-05T00:01:41.321Z,95927.93
2022-10-05T00:02:41.247Z,95927.81
2022-10-05T00:03:41.346Z,95924.17
2022-10-05T00:04:41.264Z,95924.14
2022-10-05T00:05:41.226Z,95921.66
2022-10-05T00:06:41.203Z,95929.12
2022-10-05T00:07:41.222Z,95926.17
2022-10-05T00:08:41.185Z,95924.27
2022-10-05T00:09:41.204Z,95922.78
2022-10-05T00:10:41.178Z,95920.20
2022-10-05T00:11:41.164Z,95921.41
2022-10-05T00:12:41.168Z,95919.93
2022-10-05T00:13:41.158Z,95920.83
2022-10-05T00:14:41.155Z,95924.05
2022-10-05T00:15:41.149Z,95920.92
2022-10-05T00:16:41.189Z,95920.59
2022-10-05T00:17:41.119Z,95926.73
2022-10-05T00:18:41.106Z,95922.89
2022-10-05T00:19:41.098Z,95924.15
2022-10-05T00:20:41.087Z,95925.31
2022-10-05T00:21:41.105Z,95929.89
2022-10-05T00:22:41.090Z,95926.20
2022-10-05T00:23:41.070Z,95929.72
2022-10-05T00:24:41.072Z,95930.03
2022-10-05T00:25:41.062Z,95934.77
2022-10-05T00:26:41.060Z,95934.99
2022-10-05T00:27:41.049Z,95932.11
2022-10-05T00:28:41.030Z,95931.39
2022-10-05T00:29:41.034Z,95930.98
2022-10-05T00:30:41.024Z,95927.52
2022-10-05T00:31:41.011Z,95928.95
2022-10-05T00:32:41.004Z,95924.66
2022-10-05T00:33:40.994Z,95927.95
2022-10-05T00:34:40.993Z,95926.75
2022-10-05T00:35:40.974Z,95929.52
2022-10-05T00:36:40.963Z,95926.44
2022-10-05T00:37:40.952Z,95927.35
2022-10-05T00:38:40.943Z,95936.64
2022-10-05T00:39:40.966Z,95931.17
2022-10-05T00:40:40.936Z,95927.38
2022-10-05T00:41:40.913Z,95921.38
2022-10-05T00:42:40.926Z,95934.72
2022-10-05T00:43:40.907Z,95935.59
2022-10-05T00:44:40.908Z,95936.87
2022-10-05T00:45:40.946Z,95935.22
2022-10-05T00:46:40.874Z,95936.62
2022-10-05T00:47:40.880Z,95935.39
2022-10-05T00:48:40.865Z,95930.87
2022-10-05T00:49:40.860Z,95934.64
2022-10-05T00:50:40.846Z,95932.78
2022-10-05T00:51:40.855Z,95933.12
2022-10-05T00:52:40.826Z,95927.84
2022-10-05T00:53:40.816Z,95931.52
2022-10-05T00:54:40.821Z,95932.37
2022-10-05T00:55:40.796Z,95928.34
2022-10-05T00:56:40.789Z,95929.52
2022-10-05T00:57:40.801Z,95925.11
2022-10-05T00:58:40.789Z,95925.86
2022-10-05T00:59:40.758Z,95920.41
2022-10-05T01:00:40.759Z,95919.40
2022-10-05T01:01:40.794Z,95919.49
2022-10-05T01:02:40.784Z,95917.95
2022-10-05T01:03:40.750Z,95918.52
2022-10-05T01:04:40.748Z,95917.05
2022-10-05T01:05:40.710Z,95918.50
2022-10-05T01:06:40.721Z,95921.34
2022-10-05T01:07:40.690Z,95917.10
2022-10-05T01:08:40.705Z,95917.44
2022-10-05T01:09:40.701Z,95918.50
2022-10-05T01:10:40.684Z,95914.14
2022-10-05T01:11:40.660Z,95918.16
2022-10-05T01:12:40.653Z,95918.28
2022-10-05T01:13:40.655Z,95915.19
2022-10-05T01:14:40.646Z,95911.44
2022-10-05T01:15:40.633Z,95909.16
2022-10-05T01:16:40.705Z,95910.73
2022-10-05T01:17:40.617Z,95913.39
2022-10-05T01:18:40.603Z,95909.98
2022-10-05T01:19:40.595Z,95912.86
2022-10-05T01:20:40.601Z,95911.05
2022-10-05T01:21:40.598Z,95907.06
2022-10-05T01:22:40.567Z,95908.08
2022-10-05T01:23:40.554Z,95906.81
2022-10-05T01:24:40.555Z,95908.46
2022-10-05T01:25:40.549Z,95906.59
2022-10-05T01:26:40.537Z,95902.39
2022-10-05T01:27:40.536Z,95901.20
2022-10-05T01:28:40.532Z,95899.05
2022-10-05T01:29:40.521Z,95904.38
2022-10-05T01:30:40.511Z,95901.66
2022-10-05T01:31:40.670Z,95902.25
2022-10-05T01:32:40.501Z,95899.62
2022-10-05T01:33:40.493Z,95898.66
2022-10-05T01:34:40.468Z,95903.57
2022-10-05T01:35:40.458Z,95906.28
2022-10-05T01:36:40.462Z,95899.29
2022-10-05T01:37:40.439Z,95896.43
2022-10-05T01:38:40.453Z,95899.65
2022-10-05T01:39:40.444Z,95895.70
2022-10-05T01:40:40.426Z,95895.47
2022-10-05T01:41:40.410Z,95892.55
2022-10-05T01:42:40.400Z,95894.79
2022-10-05T01:43:40.391Z,95898.98
2022-10-05T01:44:40.401Z,95892.56
2022-10-05T01:45:40.434Z,95899.80
2022-10-05T01:46:40.371Z,95892.23
2022-10-05T01:47:40.396Z,95893.12
2022-10-05T01:48:40.373Z,95899.17
2022-10-05T01:49:40.356Z,95896.67
2022-10-05T01:50:40.354Z,95898.49
2022-10-05T01:51:40.335Z,95901.80
2022-10-05T01:52:40.336Z,95893.94
2022-10-05T01:53:40.327Z,95888.94
2022-10-05T01:54:40.308Z,95894.87
2022-10-05T01:55:40.310Z,95890.00
2022-10-05T01:56:40.306Z,95887.73
2022-10-05T01:57:40.313Z,95890.02
2022-10-05T01:58:40.275Z,95888.77
2022-10-05T01:59:40.265Z,95884.84
2022-10-05T02:00:40.271Z,95886.95
2022-10-05T02:01:40.248Z,95886.91
2022-10-05T02:02:40.297Z,95883.09
2022-10-05T02:03:40.370Z,95887.46
2022-10-05T02:05:40.221Z,95889.08
2022-10-05T02:06:40.207Z,95890.55
2022-10-05T02:07:40.199Z,95882.81
2022-10-05T02:08:40.209Z,95887.72
2022-10-05T02:09:40.199Z,95887.89
2022-10-05T02:10:40.177Z,95888.02
2022-10-05T02:11:40.171Z,95881.88
2022-10-05T02:12:40.172Z,95887.23
2022-10-05T02:13:40.148Z,95881.53
2022-10-05T02:14:40.153Z,95879.38
2022-10-05T02:15:40.188Z,95878.36
2022-10-05T02:16:40.130Z,95883.17
2022-10-05T02:17:40.124Z,95881.39
2022-10-05T02:18:40.125Z,95876.06
2022-10-05T02:19:40.115Z,95877.61
2022-10-05T02:20:40.105Z,95877.73
2022-10-05T02:21:40.101Z,95873.09
2022-10-05T02:22:40.097Z,95870.55
2022-10-05T02:23:40.078Z,95870.05
2022-10-05T02:24:40.076Z,95876.23
2022-10-05T02:25:40.052Z,95885.28
2022-10-05T02:26:40.056Z,95882.79
2022-10-05T02:27:40.062Z,95879.33
2022-10-05T02:28:40.104Z,95873.91
2022-10-05T02:29:40.018Z,95881.58
2022-10-05T02:30:40.028Z,95884.25
2022-10-05T02:31:40.022Z,95886.95
2022-10-05T02:32:39.994Z,95885.36
2022-10-05T02:33:39.995Z,95882.27
2022-10-05T02:34:39.989Z,95884.97
2022-10-05T02:35:39.979Z,95889.25
2022-10-05T02:36:39.967Z,95884.90
2022-10-05T02:37:39.959Z,95890.36
2022-10-05T02:38:39.946Z,95892.56
2022-10-05T02:39:39.960Z,95890.26
2022-10-05T02:40:39.930Z,95899.02
2022-10-05T02:41:39.937Z,95898.39
2022-10-05T02:42:39.918Z,95902.24
2022-10-05T02:43:39.911Z,95898.03
2022-10-05T02:44:39.899Z,95896.70
2022-10-05T02:45:39.975Z,95894.49
2022-10-05T02:46:39.893Z,95893.60
2022-10-05T02:47:39.883Z,95893.65
2022-10-05T02:48:39.880Z,95883.58
2022-10-05T02:49:39.863Z,95890.23
2022-10-05T02:50:39.849Z,95883.60
2022-10-05T02:51:39.852Z,95881.19
2022-10-05T02:52:39.844Z,95878.06
2022-10-05T02:53:39.833Z,95883.73
2022-10-05T02:54:39.811Z,95882.06
2022-10-05T02:55:39.814Z,95880.80
2022-10-05T02:56:39.810Z,95878.31
2022-10-05T02:57:39.814Z,95874.53
2022-10-05T02:58:39.781Z,95872.50
2022-10-05T02:59:39.771Z,95862.95
2022-10-05T03:00:39.762Z,95866.80
2022-10-05T03:01:39.821Z,95870.23
2022-10-05T03:02:39.764Z,95865.95
2022-10-05T03:03:39.753Z,95871.62
2022-10-05T03:04:39.748Z,95871.29
2022-10-05T03:05:39.715Z,95865.62
2022-10-05T03:06:39.718Z,95869.58
2022-10-05T03:07:39.724Z,95864.30
2022-10-05T03:08:39.695Z,95868.48
2022-10-05T03:09:39.696Z,95871.36
2022-10-05T03:10:39.690Z,95872.30
2022-10-05T03:11:39.665Z,95873.03
2022-10-05T03:12:39.667Z,95869.86
2022-10-05T03:13:39.646Z,95869.52
2022-10-05T03:14:39.646Z,95865.55
2022-10-05T03:15:39.682Z,95866.73
2022-10-05T03:16:39.648Z,95868.26
2022-10-05T03:17:39.630Z,95869.70
2022-10-05T03:18:39.629Z,95879.36
2022-10-05T03:19:39.623Z,95874.20
2022-10-05T03:20:39.613Z,95874.62
2022-10-05T03:21:39.609Z,95870.09
2022-10-05T03:22:39.615Z,95876.80
2022-10-05T03:23:39.583Z,95869.90
2022-10-05T03:24:39.587Z,95873.55
2022-10-05T03:25:39.585Z,95869.02
2022-10-05T03:26:39.549Z,95865.69
2022-10-05T03:27:39.549Z,95867.50
2022-10-05T03:28:39.570Z,95870.94
2022-10-05T03:29:39.530Z,95870.13
2022-10-05T03:30:39.511Z,95869.37
2022-10-05T03:31:39.585Z,95862.81
2022-10-05T03:32:39.501Z,95865.02
2022-10-05T03:33:39.516Z,95861.39
2022-10-05T03:34:39.494Z,95864.72
2022-10-05T03:35:39.483Z,95864.23
2022-10-05T03:36:39.476Z,95866.51
2022-10-05T03:37:39.465Z,95864.48
2022-10-05T03:38:39.451Z,95864.36
2022-10-05T03:39:39.443Z,95863.05
2022-10-05T03:40:39.433Z,95868.34
2022-10-05T03:41:39.427Z,95865.00
2022-10-05T03:42:39.414Z,95865.17
2022-10-05T03:43:39.403Z,95865.12
2022-10-05T03:44:39.408Z,95866.19
2022-10-05T03:45:39.418Z,95866.02
2022-10-05T03:46:39.419Z,95866.36
2022-10-05T03:47:39.379Z,95858.45
2022-10-05T03:48:39.381Z,95857.58
2022-10-05T03:49:39.345Z,95860.80
2022-10-05T03:50:39.359Z,95860.80
2022-10-05T03:51:39.356Z,95860.12
2022-10-05T03:52:39.341Z,95857.62
2022-10-05T03:53:39.330Z,95855.89
2022-10-05T03:54:39.309Z,95857.67
2022-10-05T03:55:39.297Z,95855.23
2022-10-05T03:56:39.299Z,95858.33
2022-10-05T03:57:39.313Z,95853.59
2022-10-05T03:58:39.294Z,95855.55
2022-10-05T03:59:39.283Z,95857.91
2022-10-05T04:00:39.286Z,95856.66
2022-10-05T04:01:39.293Z,95857.08
2022-10-05T04:02:39.302Z,95863.08
2022-10-05T04:03:39.261Z,95862.84
2022-10-05T04:04:39.251Z,95865.34
2022-10-05T04:05:39.224Z,95864.26
2022-10-05T04:06:39.224Z,95864.84
2022-10-05T04:07:39.204Z,95860.08
2022-10-05T04:08:39.625Z,95861.81
2022-10-05T04:09:39.205Z,95864.94
2022-10-05T04:10:39.195Z,95864.77
2022-10-05T04:11:39.177Z,95862.45
2022-10-05T04:12:39.178Z,95865.78
2022-10-05T04:13:39.173Z,95866.26
2022-10-05T04:14:39.164Z,95864.57
2022-10-05T04:15:39.279Z,95870.27
2022-10-05T04:16:39.147Z,95865.80
2022-10-05T04:17:39.134Z,95871.05
2022-10-05T04:18:39.113Z,95870.20
2022-10-05T04:19:39.107Z,95869.73
2022-10-05T04:20:39.108Z,95867.51
2022-10-05T04:21:39.099Z,95866.28
2022-10-05T04:22:39.093Z,95871.86
2022-10-05T04:23:39.079Z,95865.70
2022-10-05T04:24:39.076Z,95870.38
2022-10-05T04:25:39.054Z,95870.84
2022-10-05T04:26:39.061Z,95872.03
2022-10-05T04:27:39.161Z,95872.59
2022-10-05T04:28:39.090Z,95872.62
2022-10-05T04:29:39.019Z,95873.22
2022-10-05T04:30:39.007Z,95873.55
2022-10-05T04:31:39.106Z,95875.62
2022-10-05T04:32:39.003Z,95877.78
2022-10-05T04:33:38.988Z,95872.62
2022-10-05T04:34:38.979Z,95873.14
2022-10-05T04:35:38.973Z,95873.94
2022-10-05T04:36:38.957Z,95874.23
2022-10-05T04:37:42.113Z,95872.12
2022-10-05T04:38:38.953Z,95870.72
2022-10-05T04:39:38.949Z,95865.70
2022-10-05T04:40:38.921Z,95867.97
2022-10-05T04:41:38.923Z,95865.44
2022-10-05T04:42:38.911Z,95865.27
2022-10-05T04:43:38.929Z,95861.20
2022-10-05T04:44:38.895Z,95857.36
2022-10-05T04:45:38.905Z,95859.94
2022-10-05T04:46:38.960Z,95860.11
2022-10-05T04:47:38.876Z,95853.13
2022-10-05T04:48:38.860Z,95856.80
2022-10-05T04:49:38.862Z,95856.30
2022-10-05T04:50:38.844Z,95854.48
2022-10-05T04:51:38.846Z,95855.96
2022-10-05T04:52:38.838Z,95856.86
2022-10-05T04:53:38.813Z,95862.82
2022-10-05T04:54:38.818Z,95859.80
2022-10-05T04:55:38.817Z,95857.28
2022-10-05T04:56:38.786Z,95857.98
2022-10-05T04:57:38.818Z,95864.86
2022-10-05T04:58:42.227Z,95863.78
2022-10-05T04:59:38.765Z,95867.11
2022-10-05T05:00:38.791Z,95868.30
2022-10-05T05:01:38.746Z,95862.13
2022-10-05T05:02:38.749Z,95862.55
2022-10-05T05:03:38.798Z,95866.70
2022-10-05T05:04:38.731Z,95867.20
2022-10-05T05:05:53.100Z,95866.07
2022-10-05T05:06:38.711Z,95871.14
2022-10-05T05:07:38.714Z,95873.68
2022-10-05T05:08:38.702Z,95874.84
2022-10-05T05:09:38.699Z,95874.38
2022-10-05T05:10:38.682Z,95871.38
2022-10-05T05:11:38.681Z,95871.25
2022-10-05T05:12:38.650Z,95874.20
2022-10-05T05:13:38.664Z,95869.30
2022-10-05T05:14:38.643Z,95869.00
2022-10-05T05:15:38.641Z,95869.18
2022-10-05T05:16:38.634Z,95875.36
2022-10-05T05:17:38.630Z,95875.31
2022-10-05T05:18:38.603Z,95877.92
2022-10-05T05:19:38.611Z,95878.81
2022-10-05T05:20:38.595Z,95882.20
2022-10-05T05:21:38.611Z,95881.91
2022-10-05T05:22:38.583Z,95889.13
2022-10-05T05:23:38.576Z,95892.44
2022-10-05T05:24:38.565Z,95891.17
2022-10-05T05:25:38.554Z,95893.36
2022-10-05T05:26:39.200Z,95893.20
2022-10-05T05:27:38.560Z,95893.21
2022-10-05T05:28:38.563Z,95896.12
2022-10-05T05:29:38.528Z,95894.73
2022-10-05T05:30:38.517Z,95902.17
2022-10-05T05:31:38.530Z,95898.91
2022-10-05T05:32:38.485Z,95899.80
2022-10-05T05:33:38.510Z,95901.02
2022-10-05T05:34:38.479Z,95905.76
2022-10-05T05:35:38.466Z,95900.47
2022-10-05T05:36:38.458Z,95898.23
2022-10-05T05:37:38.459Z,95905.03
2022-10-05T05:38:38.449Z,95906.22
2022-10-05T05:39:38.446Z,95905.71
2022-10-05T05:40:38.417Z,95904.53
2022-10-05T05:41:38.417Z,95910.42
2022-10-05T05:42:38.397Z,95910.20
2022-10-05T05:43:38.411Z,95903.31
2022-10-05T05:44:39.087Z,95904.23
2022-10-05T05:45:38.413Z,95905.30
2022-10-05T05:47:02.365Z,95909.27
2022-10-05T05:47:38.429Z,95905.38
2022-10-05T05:48:38.362Z,95903.09
2022-10-05T05:49:38.362Z,95905.55
2022-10-05T05:50:38.345Z,95901.66
2022-10-05T05:51:38.339Z,95905.12
2022-10-05T05:52:38.334Z,95898.27
2022-10-05T05:53:38.324Z,95898.27
2022-10-05T05:54:38.314Z,95902.28
2022-10-05T05:55:38.311Z,95897.38
2022-10-05T05:56:38.305Z,95905.23
2022-10-05T05:57:38.315Z,95897.72
2022-10-05T05:58:38.285Z,95900.01
2022-10-05T05:59:38.262Z,95899.84
2022-10-05T06:00:38.252Z,95902.03
2022-10-05T06:01:43.416Z,95903.27
2022-10-05T06:02:38.408Z,95898.48
2022-10-05T06:03:38.254Z,95899.50
2022-10-05T06:04:38.213Z,95898.99
2022-10-05T06:05:38.251Z,95894.98
2022-10-05T06:06:38.199Z,95900.93
2022-10-05T06:07:38.194Z,95895.61
2022-10-05T06:08:38.183Z,95901.31
2022-10-05T06:09:38.184Z,95902.28
2022-10-05T06:10:38.180Z,95904.90
2022-10-05T06:11:38.167Z,95902.80
2022-10-05T06:12:38.158Z,95904.42
2022-10-05T06:13:38.162Z,95905.52
2022-10-05T06:14:38.139Z,95914.94
2022-10-05T06:15:38.147Z,95915.86
2022-10-05T06:16:38.193Z,95912.55
2022-10-05T06:17:38.120Z,95916.02
2022-10-05T06:18:38.111Z,95917.03
2022-10-05T06:19:38.097Z,95916.05
2022-10-05T06:20:38.093Z,95914.73
2022-10-05T06:21:38.087Z,95917.72
2022-10-05T06:22:38.068Z,95915.40
2022-10-05T06:23:38.059Z,95914.89
2022-10-05T06:24:38.056Z,95915.77
2022-10-05T06:25:38.052Z,95913.86
2022-10-05T06:26:38.030Z,95914.39
2022-10-05T06:27:38.121Z,95905.43
2022-10-05T06:28:38.113Z,95904.97
2022-10-05T06:29:38.011Z,95905.62
2022-10-05T06:30:37.998Z,95903.18
2022-10-05T06:31:38.075Z,95904.61
2022-10-05T06:32:37.994Z,95907.73
2022-10-05T06:33:38.005Z,95906.07
2022-10-05T06:34:37.962Z,95902.35
2022-10-05T06:35:37.952Z,95906.53
2022-10-05T06:36:37.943Z,95898.44
2022-10-05T06:37:37.958Z,95908.16
2022-10-05T06:38:37.943Z,95906.80
2022-10-05T06:39:37.942Z,95905.83
2022-10-05T06:40:37.946Z,95905.23
2022-10-05T06:41:37.903Z,95905.05
2022-10-05T06:42:37.893Z,95905.97
2022-10-05T06:43:37.895Z,95902.75
2022-10-05T06:44:37.875Z,95905.61
2022-10-05T06:45:37.920Z,95905.13
2022-10-05T06:46:37.868Z,95912.87
2022-10-05T06:47:37.868Z,95904.05
2022-10-05T06:48:37.858Z,95910.05
2022-10-05T06:49:37.845Z,95903.95
2022-10-05T06:50:37.829Z,95907.88
2022-10-05T06:51:37.861Z,95907.78
2022-10-05T06:52:37.826Z,95909.11
2022-10-05T06:53:37.831Z,95908.98
2022-10-05T06:54:37.810Z,95912.06
2022-10-05T06:55:37.787Z,95910.98
2022-10-05T06:56:37.778Z,95910.77
2022-10-05T06:57:37.799Z,95910.50
2022-10-05T06:58:37.761Z,95908.33
2022-10-05T06:59:37.752Z,95912.59
2022-10-05T07:00:37.739Z,95904.88
2022-10-05T07:01:37.910Z,95905.11
2022-10-05T07:02:37.757Z,95905.98
2022-10-05T07:03:37.754Z,95910.48
2022-10-05T07:04:37.713Z,95910.70
2022-10-05T07:05:37.714Z,95906.52
2022-10-05T07:06:37.691Z,95913.30
2022-10-05T07:07:37.693Z,95912.11
2022-10-05T07:08:37.685Z,95912.57
2022-10-05T07:09:37.681Z,95912.55
2022-10-05T07:10:37.666Z,95912.23
2022-10-05T07:11:37.668Z,95916.86
2022-10-05T07:12:37.647Z,95916.30
2022-10-05T07:13:37.631Z,95921.09
2022-10-05T07:14:37.636Z,95919.98
2022-10-05T07:15:37.642Z,95914.92
2022-10-05T07:16:37.639Z,95922.86
2022-10-05T07:17:37.616Z,95917.14
2022-10-05T07:18:37.597Z,95915.06
2022-10-05T07:19:37.597Z,95918.50
2022-10-05T07:20:37.572Z,95924.52
2022-10-05T07:21:37.574Z,95921.95
2022-10-05T07:22:37.554Z,95924.45
2022-10-05T07:23:37.547Z,95921.61
2022-10-05T07:24:37.548Z,95934.36
2022-10-05T07:25:37.548Z,95931.82
2022-10-05T07:26:37.515Z,95929.63
2022-10-05T07:27:37.550Z,95930.23
2022-10-05T07:28:37.575Z,95925.61
2022-10-05T07:29:37.496Z,95929.62
2022-10-05T07:30:37.525Z,95928.96
2022-10-05T07:31:37.506Z,95933.07
2022-10-05T07:32:37.481Z,95932.50
2022-10-05T07:33:37.487Z,95929.45
2022-10-05T07:34:37.462Z,95925.12
2022-10-05T07:35:37.449Z,95927.70
2022-10-05T07:36:37.437Z,95923.28
2022-10-05T07:37:37.449Z,95926.53
2022-10-05T07:38:37.432Z,95927.05
2022-10-05T07:39:59.013Z,95930.77
2022-10-05T07:40:37.414Z,95931.88
2022-10-05T07:41:37.434Z,95929.83
2022-10-05T07:42:44.556Z,95933.49
2022-10-05T07:44:00.496Z,95935.72
2022-10-05T07:44:37.372Z,95937.47
2022-10-05T07:45:37.476Z,95938.51
2022-10-05T07:46:37.352Z,95940.47
2022-10-05T07:47:37.352Z,95943.91
2022-10-05T07:48:37.341Z,95942.77
2022-10-05T07:49:37.346Z,95947.01
2022-10-05T07:50:37.338Z,95944.42
2022-10-05T07:51:37.354Z,95946.04
2022-10-05T07:52:37.317Z,95947.27
2022-10-05T07:53:37.303Z,95944.30
2022-10-05T07:54:37.292Z,95939.10
2022-10-05T07:55:37.286Z,95943.30
2022-10-05T07:56:37.275Z,95943.38
2022-10-05T07:57:37.288Z,95946.70
2022-10-05T07:58:37.257Z,95948.20
2022-10-05T07:59:37.259Z,95941.83
2022-10-05T08:00:37.244Z,95946.77
2022-10-05T08:01:37.263Z,95949.62
2022-10-05T08:02:37.478Z,95950.89
2022-10-05T08:03:37.239Z,95945.81
2022-10-05T08:04:41.595Z,95950.95
2022-10-05T08:05:37.212Z,95953.12
2022-10-05T08:06:37.187Z,95947.36
2022-10-05T08:07:37.203Z,95947.52
2022-10-05T08:08:37.235Z,95953.16
2022-10-05T08:09:37.188Z,95948.34
2022-10-05T08:10:37.174Z,95949.27
2022-10-05T08:11:37.171Z,95951.03
2022-10-05T08:12:37.152Z,95951.17
2022-10-05T08:13:37.140Z,95949.39
2022-10-05T08:14:37.130Z,95945.48
2022-10-05T08:15:37.162Z,95943.88
2022-10-05T08:16:37.114Z,95944.55
2022-10-05T08:17:37.123Z,95946.55
2022-10-05T08:18:37.092Z,95945.78
2022-10-05T08:19:37.095Z,95946.88
2022-10-05T08:20:37.085Z,95948.16
2022-10-05T08:21:37.098Z,95948.72
2022-10-05T08:22:37.065Z,95950.48
2022-10-05T08:23:37.067Z,95945.19
2022-10-05T08:24:37.034Z,95946.58
2022-10-05T08:25:37.047Z,95945.86
2022-10-05T08:26:37.022Z,95949.28
2022-10-05T08:27:37.058Z,95949.64
2022-10-05T08:28:37.108Z,95944.22
2022-10-05T08:29:37.008Z,95941.67
2022-10-05T08:30:36.985Z,95945.53
2022-10-05T08:31:37.059Z,95951.11
2022-10-05T08:32:36.979Z,95951.21
2022-10-05T08:33:36.986Z,95946.98
2022-10-05T08:34:36.946Z,95950.77
2022-10-05T08:35:36.947Z,95949.50
2022-10-05T08:36:36.935Z,95952.52
2022-10-05T08:37:36.944Z,95949.31
2022-10-05T08:38:36.928Z,95951.34
2022-10-05T08:39:36.932Z,95953.13
2022-10-05T08:40:36.976Z,95944.40
2022-10-05T08:41:36.912Z,95950.14
2022-10-05T08:42:36.880Z,95948.75
2022-10-05T08:43:36.903Z,95950.20
2022-10-05T08:44:36.873Z,95949.14
2022-10-05T08:45:36.889Z,95953.55
2022-10-05T08:46:36.915Z,95951.23
2022-10-05T08:47:36.842Z,95946.30
2022-10-05T08:48:36.843Z,95949.97
2022-10-05T08:49:36.812Z,95944.75
2022-10-05T08:50:36.826Z,95950.17
2022-10-05T08:51:36.804Z,95953.95
2022-10-05T08:52:36.792Z,95945.42
2022-10-05T08:53:36.781Z,95942.36
2022-10-05T08:54:36.775Z,95944.33
2022-10-05T08:55:36.763Z,95944.11
2022-10-05T08:56:36.754Z,95941.27
2022-10-05T08:57:36.768Z,95946.46
2022-10-05T08:58:36.748Z,95946.47
2022-10-05T08:59:36.727Z,95951.21
2022-10-05T09:00:36.729Z,95947.17
2022-10-05T09:01:36.745Z,95945.87
2022-10-05T09:02:36.750Z,95948.21
2022-10-05T09:03:36.697Z,95942.69
2022-10-05T09:04:36.691Z,95943.50
2022-10-05T09:05:36.681Z,95943.73
2022-10-05T09:06:36.667Z,95945.38
2022-10-05T09:07:39.368Z,95945.95
2022-10-05T09:08:36.666Z,95945.73
2022-10-05T09:09:36.648Z,95950.73
2022-10-05T09:10:36.643Z,95951.29
2022-10-05T09:11:36.610Z,95945.69
2022-10-05T09:12:36.610Z,95946.49
2022-10-05T09:13:36.610Z,95948.05
2022-10-05T09:14:36.591Z,95945.75
2022-10-05T09:15:36.669Z,95947.05
2022-10-05T09:16:36.571Z,95945.76
2022-10-05T09:17:39.343Z,95942.65
2022-10-05T09:18:36.552Z,95942.66
2022-10-05T09:19:36.556Z,95944.27
2022-10-05T09:20:36.533Z,95947.90
2022-10-05T09:21:36.553Z,95944.20
2022-10-05T09:22:36.699Z,95941.39
2022-10-05T09:23:36.523Z,95942.70
2022-10-05T09:24:36.520Z,95946.53
2022-10-05T09:25:36.485Z,95949.31
2022-10-05T09:26:36.505Z,95942.12
2022-10-05T09:27:36.499Z,95944.50
2022-10-05T09:28:36.512Z,95947.23
2022-10-05T09:29:36.460Z,95945.59
2022-10-05T09:30:36.460Z,95948.71
2022-10-05T09:31:36.436Z,95945.81
2022-10-05T09:32:36.427Z,95942.02
2022-10-05T09:33:36.417Z,95943.28
2022-10-05T09:34:36.408Z,95943.33
2022-10-05T09:35:36.410Z,95943.05
2022-10-05T09:36:36.401Z,95941.67
2022-10-05T09:37:36.378Z,95937.97
2022-10-05T09:38:36.382Z,95939.50
2022-10-05T09:39:36.370Z,95938.77
2022-10-05T09:40:36.371Z,95941.66
2022-10-05T09:41:36.340Z,95944.23
2022-10-05T09:42:36.341Z,95943.22
2022-10-05T09:43:36.321Z,95944.12
2022-10-05T09:44:36.342Z,95941.22
2022-10-05T09:45:36.322Z,95940.06
2022-10-05T09:46:36.409Z,95944.27
2022-10-05T09:47:36.297Z,95941.27
2022-10-05T09:48:36.297Z,95940.36
2022-10-05T09:49:36.272Z,95937.42
2022-10-05T09:50:36.264Z,95939.84
2022-10-05T09:51:36.254Z,95938.92
2022-10-05T09:52:36.258Z,95940.91
2022-10-05T09:53:36.249Z,95937.49
2022-10-05T09:54:36.225Z,95936.73
2022-10-05T09:55:36.229Z,95938.75
2022-10-05T09:56:36.230Z,95935.65
2022-10-05T09:57:36.217Z,95943.11
2022-10-05T09:58:36.210Z,95937.06
2022-10-05T09:59:36.181Z,95940.09
2022-10-05T10:00:36.178Z,95941.41
2022-10-05T10:01:36.276Z,95935.00
2022-10-05T10:02:36.243Z,95935.30
2022-10-05T10:03:36.209Z,95937.62
2022-10-05T10:04:36.142Z,95931.97
2022-10-05T10:05:36.142Z,95935.06
2022-10-05T10:06:36.120Z,95931.11
2022-10-05T10:07:36.124Z,95928.25
2022-10-05T10:08:36.114Z,95931.16
2022-10-05T10:09:38.732Z,95927.17
2022-10-05T10:10:36.107Z,95931.91
2022-10-05T10:11:36.087Z,95929.45
2022-10-05T10:12:36.086Z,95928.38
2022-10-05T10:13:36.052Z,95927.16
2022-10-05T10:14:36.055Z,95924.20
2022-10-05T10:15:36.090Z,95928.02
2022-10-05T10:16:36.034Z,95929.09
2022-10-05T10:17:36.014Z,95924.30
2022-10-05T10:18:36.030Z,95929.99
2022-10-05T10:19:36.016Z,95924.77
2022-10-05T10:20:36.008Z,95923.11
2022-10-05T10:21:35.996Z,95919.11
2022-10-05T10:22:39.601Z,95918.48
2022-10-05T10:23:35.969Z,95920.31
2022-10-05T10:24:35.970Z,95916.48
2022-10-05T10:25:35.961Z,95919.04
2022-10-05T10:26:35.959Z,95912.98
2022-10-05T10:27:35.951Z,95912.34
2022-10-05T10:28:35.990Z,95915.32
2022-10-05T10:29:35.942Z,95916.80
2022-10-05T10:30:36.600Z,95915.14
2022-10-05T10:31:35.908Z,95916.55
2022-10-05T10:32:35.889Z,95918.12
2022-10-05T10:33:35.903Z,95919.67
2022-10-05T10:34:35.885Z,95912.13
2022-10-05T10:35:35.874Z,95907.88
2022-10-05T10:36:35.852Z,95903.83
2022-10-05T10:37:35.841Z,95917.19
2022-10-05T10:38:35.854Z,95905.77
2022-10-05T10:39:35.846Z,95912.49
2022-10-05T10:40:35.824Z,95911.17
2022-10-05T10:41:35.803Z,95908.02
2022-10-05T10:42:35.803Z,95907.21
2022-10-05T10:43:35.804Z,95908.18
2022-10-05T10:44:35.802Z,95906.05
2022-10-05T10:45:35.785Z,95909.38
2022-10-05T10:46:35.821Z,95911.38
2022-10-05T10:47:35.762Z,95909.30
2022-10-05T10:48:35.746Z,95910.14
2022-10-05T10:49:35.750Z,95907.10
2022-10-05T10:50:35.736Z,95909.52
2022-10-05T10:51:35.727Z,95904.42
2022-10-05T10:52:35.716Z,95904.52
2022-10-05T10:53:35.699Z,95904.45
2022-10-05T10:54:35.698Z,95904.16
2022-10-05T10:55:35.689Z,95904.66
2022-10-05T10:56:35.679Z,95905.12
2022-10-05T10:57:35.699Z,95901.31
2022-10-05T10:58:35.674Z,95899.48
2022-10-05T10:59:35.650Z,95900.14
2022-10-05T11:00:35.661Z,95900.02
2022-10-05T11:01:35.747Z,95901.79
2022-10-05T11:02:35.730Z,95901.75
2022-10-05T11:03:35.640Z,95899.06
2022-10-05T11:04:35.625Z,95902.42
2022-10-05T11:05:35.630Z,95897.73
2022-10-05T11:06:35.601Z,95896.56
2022-10-05T11:07:35.583Z,95896.08
2022-10-05T11:08:35.582Z,95893.07
2022-10-05T11:09:35.587Z,95890.95
2022-10-05T11:10:35.564Z,95895.28
2022-10-05T11:11:35.546Z,95894.81
2022-10-05T11:12:35.560Z,95893.54
2022-10-05T11:13:35.534Z,95891.06
2022-10-05T11:14:35.539Z,95891.38
2022-10-05T11:15:35.569Z,95891.73
2022-10-05T11:16:35.537Z,95889.39
2022-10-05T11:17:35.509Z,95887.80
2022-10-05T11:18:35.495Z,95882.16
2022-10-05T11:19:40.527Z,95890.24
2022-10-05T11:20:35.477Z,95886.28
2022-10-05T11:21:35.476Z,95885.41
2022-10-05T11:22:35.482Z,95884.88
2022-10-05T11:23:38.920Z,95884.86
2022-10-05T11:24:35.453Z,95880.83
2022-10-05T11:25:35.434Z,95881.44
2022-10-05T11:26:35.420Z,95884.41
2022-10-05T11:27:35.442Z,95880.16
2022-10-05T11:28:35.451Z,95879.39
2022-10-05T11:29:35.393Z,95880.71
2022-10-05T11:30:35.395Z,95882.62
2022-10-05T11:31:35.461Z,95880.79
2022-10-05T11:32:35.377Z,95878.88
2022-10-05T11:33:35.372Z,95883.15
2022-10-05T11:34:35.352Z,95883.77
2022-10-05T11:35:35.344Z,95873.67
2022-10-05T11:36:35.345Z,95873.67
2022-10-05T11:37:35.327Z,95877.09
2022-10-05T11:38:35.315Z,95873.53
2022-10-05T11:39:35.318Z,95871.34
2022-10-05T11:40:35.299Z,95867.38
2022-10-05T11:41:35.276Z,95864.09
2022-10-05T11:42:35.291Z,95863.84
2022-10-05T11:43:35.271Z,95865.66
2022-10-05T11:44:35.259Z,95865.12
2022-10-05T11:45:35.257Z,95863.19